Georgetown, Georgia
Current Conditions -  °F | °C
As of 2:58 PM on Monday 22 Dec 2014 (Local Time) from KEUF Reporting Station
Overcast Overcast  
Wind Chill: 54°   Ceiling: 400
Heat Index: 54°   Visibility: 10mi
Dew Point: 52°   Wind: 3mph
Humidity: 93%   Direction: 90°E
Pressure: 29.86"   Gusts: NA
Location:  31.88°N, 85.11°W
Report Text: KEUF 221958Z AUTO 09003KT 10SM OVC004 12/11 A2986 RMK AO2 SLP111 T01220111
Loading
Personal Weather Stations






























Interactive Weather Map New forecast layout! Learn more

10-Day Weather Forecast

Advertisements
Track Severe Weather on mobile